ADDS METAR Data INFO
IDs: Format: Raw Decoded Include TAF

Data at: 0636 UTC 15 Dec 2017

KCOS 150621Z 18003KT 3SM BR SCT002 OVC011 M03/M04 A3024 RMK AO2 VSBYIR T10331039
KCOS 150554Z 18003KT 3/4SM R17L/1800V2800FT BR VV002 M03/M04 A3025 RMK AO2 SLP279 I1000 I6000 T10331039 11017 21061 58002
KCOS 150538Z 16003KT 3/4SM R17L/4500VP6000FT BR OVC002 M03/M04 A3025 RMK AO2 T10331039
KCOS 150519Z 00000KT 6SM BR BKN002 OVC009 M06/M07 A3025 RMK AO2 T10561067
KCOS 150504Z 19005KT 7SM BKN004 BKN009 M05/M07 A3026 RMK AO2 CIG 002V007 T10501067
KCOS 150454Z 18003KT 9SM BKN006 M06/M07 A3026 RMK AO2 CIG 003V010 SLP293 T10561067
KCOS 150446Z VRB03KT 9SM FEW004 SCT024 M06/M07 A3026 RMK AO2 T10561072
KCOS 150354Z 00000KT 10SM FEW025 M04/M07 A3026 RMK AO2 SLP291 T10391072
KCOS 150254Z 00000KT 10SM FEW019 M03/M07 A3026 RMK AO2 SLP290 T10281072 53009
KCOS 150154Z 23004KT 10SM FEW025 M03/M07 A3025 RMK AO2 SLP287 T10281072
KCOS 150054Z VRB05KT 10SM FEW033 M02/M07 A3023 RMK AO2 SLP278 T10221072
KCOS 142354Z 36010KT 10SM FEW031 M02/M07 A3023 RMK AO2 SLP277 VCSH S-SW T10221072 10022 21022 51015
KCOS 142254Z 03016KT 10SM SCT033 BKN041 00/M06 A3021 RMK AO2 SLP265 VCSH S-SW T00001056
KCOS 142154Z 00000KT 10SM FEW030 BKN044 02/M06 A3019 RMK AO2 SLP251 T00171061
KCOS 142054Z 28004KT 10SM FEW027 BKN041 02/M06 A3018 RMK AO2 SLP244 T00171056 56013
KCOS 141954Z 30003KT 10SM SCT025 OVC031 01/M05 A3019 RMK AO2 SLP247 T00061050
KCOS 141854Z 19004KT 10SM SCT025 BKN034 OVC100 01/M05 A3020 RMK AO2 SLP244 T00061050
KCOS 141754Z 00000KT 10SM SCT025 OVC035 02/M06 A3022 RMK AO2 SLP248 T00171056 10017 21022 53001
KCOS 141654Z 35004KT 10SM BKN060 BKN100 BKN200 00/M06 A3022 RMK AO2 SLP253 T00001056
KCOS 141554Z 32008KT 10SM BKN060 BKN100 BKN220 M01/M06 A3022 RMK AO2 SLP257 T10111061
KCOS 141454Z 32011KT 10SM FEW010 BKN070 OVC100 M02/M06 A3022 RMK AO2 SLP260 VCSH OMTNS SW T10171061 51013
KCOS 141354Z 33010KT 9SM FEW010 BKN075 OVC090 M02/M06 A3021 RMK AO2 SLP264 VCSH SW-NW T10171056
KCOS 141254Z 35011KT 10SM FEW080 OVC095 M02/M06 A3019 RMK AO2 SLP248 T10171061
KCOS 141154Z 35013KT 9SM SCT019 OVC055 M01/M04 A3017 RMK AO2 SNE50 SLP234 P0000 60000 T10111044 10033 21017 53005
KCOS 141054Z COR 34004KT 8SM -SN OVC055 M01/M04 A3016 RMK AO2 SNE35B54 SLP221 PCPN VRY LGT P0000 T10111039
KCOS 140954Z 32004KT 2 1/2SM -SN BR OVC035 M01/M03 A3016 RMK AO2 SLP217 P0000 T10111033
KCOS 140950Z 30003KT 2 1/2SM -SN BR OVC035 M01/M03 A3015 RMK AO2 P0000
KCOS 140908Z 03006KT 3SM -SN BR BKN035 OVC045 M01/M03 A3015 RMK AO2 P0000 T10111033
KCOS 140854Z 03008KT 2SM -SN BR OVC024 M01/M03 A3015 RMK AO2 SNB02 SLP215 P0000 60000 T10111033 53005
KCOS 140820Z 01011KT 2SM -SN BR OVC026 M01/M04 A3014 RMK AO2 SNB02 P0000 T10111039
KCOS 140809Z COR 01013KT 1 3/4SM -SN BR OVC030 M01/M04 A3014 RMK AO2 SNB02 VSBYDR P0000 T10111039
KCOS 140754Z 04012G22KT 6SM BR OVC040 01/M07 A3013 RMK AO2 SLP202 FROPA T00111067
KCOS 140654Z 34010KT 10SM OVC070 03/M11 A3012 RMK AO2 SLP193 T00331106 401000000
KCOS 140554Z 33009G17KT 10SM FEW055 OVC095 03/M11 A3013 RMK AO2 SLP195 T00331106 10050 20000 53014
KCOS 140454Z 04014KT 10SM FEW070 OVC090 03/M11 A3011 RMK AO2 SLP191 T00331111
KCOS 140354Z 05013KT 10SM FEW065 OVC110 03/M11 A3009 RMK AO2 SLP187 T00331111
KCOS 140254Z 02007KT 10SM OVC100 03/M13 A3008 RMK AO2 SLP190 T00281128 53008
KCOS 140154Z 02005KT 10SM OVC110 01/M14 A3007 RMK AO2 SLP193 T00061139
KCOS 140054Z 12004KT 10SM SCT110 SCT160 03/M14 A3005 RMK AO2 SLP170 T00331139
KCOS 132354Z 13006KT 10SM SCT120 SCT200 05/M14 A3005 RMK AO2 SLP170 T00501139 10100 20044 55006
KCOS 132254Z 14007KT 10SM SCT120 SCT200 07/M13 A3004 RMK AO2 SLP154 T00721133
KCOS 132154Z 17010KT 10SM SCT120 SCT200 08/M13 A3004 RMK AO2 SLP155 T00831133
KCOS 132054Z 17005KT 10SM SCT120 SCT200 09/M13 A3007 RMK AO2 SLP171 T00891133 56029
KCOS 131954Z 18011KT 10SM SCT120 SCT200 08/M13 A3009 RMK AO2 SLP176 T00831133
KCOS 131854Z 20009KT 10SM SCT120 BKN200 09/M14 A3013 RMK AO2 SLP199 T00891144